Huvudsida
METAR-TAF:

METAR-TAF

Flygplatser :

Phu Quoc flygplats

Phu Quoc, Vietnam

latitud: 10-10-18N, longitud: 103-59-28E, höjd: 11 m

Aktuellt väderrapport

Denna rapport gjordes för 31 minuter sedan, klockan 19:30 UTC
Vind 1 kt varierande vindriktning
Temperatur 26°C
Fuktighet 84%
Tryck 1012 hPa
Sikt 10 km eller mer
Inga moln under 1 500 m eller inga cumulonimbus

METAR: VVPQ 221930Z VRB01KT CAVOK 26/23 Q1012 NOSIG

Tid: 03:01 (20:01 UTC)

Väderprognos

Denna rapport gjordes för 3 timmar och 1 minuter sedan, klockan 17:00 UTC
Prognos gäller från 22 kl. 18 UTC till 23 kl. 18 UTC
Vind 2 kt varierande vindriktning
Sikt 10 km eller mer
Spridda moln på en höjd av 1500 ft
Blir
från 23 kl. 00 UTC till 23 kl. 01 UTC
Vind 10 kt från ost

TAF: VVPQ 221700Z 2218/2318 VRB02KT 9999 SCT015 BECMG 2300/2301 09010KT

Aktuella väderrapporter och prognoser från 4000 flygplatser (METAR- och TAF-rapporter).

De tillgängliga stationerna syns som gula och röda prickar på kartan.

För musen över prickarna för att se namnen på stationerna.

Klicka sedan för att få väderrapporter och prognoser.

För att ändra kartan: Klicka på de gröna knapparna med ett svart kors på för att zooma in; den gröna knappen med ett streck på för att zooma ut; eller på de gröna pilarna för angränsande kartor.


METAR-TAF: